Time;durP1;ratioP1;P1;durP2;ratioP2;P2;SDS_P1;SDS_P2;PMS_P1;PMS_P2;Temp;Humidity;BMP_temperature;BMP_pressure;BME280_temperature;BME280_humidity;BME280_pressure;Samples;Min_cycle;Max_cycle;Signal;HPM_P1;HPM_P2
2022/12/31 11:27:46;;;;;;;2.72;2.50;;;;;;;8.19;95.11;100363.53;5131979;27;20387;-65
2022/12/31 11:30:22;;;;;;;2.60;2.40;;;;;;;8.26;94.46;100369.59;5130577;28;20057;-65
2022/12/31 11:33:08;;;;;;;7.80;3.47;;;;;;;8.38;93.89;100365.63;5132113;27;20039;-65
2022/12/31 11:35:56;;;;;;;4.03;3.17;;;;;;;8.40;93.53;100358.03;5131755;28;20405;-66
2022/12/31 11:38:29;;;;;;;3.45;3.15;;;;;;;8.36;93.40;100361.34;5131659;28;20101;-65
2022/12/31 11:41:06;;;;;;;4.13;3.75;;;;;;;8.37;92.63;100360.53;5131585;28;20066;-65
2022/12/31 11:43:46;;;;;;;4.72;3.65;;;;;;;8.36;92.55;100367.28;5131532;27;20061;-66
2022/12/31 11:46:30;;;;;;;2.60;2.17;;;;;;;8.36;92.37;100362.22;5131738;27;20481;-65
2022/12/31 11:49:18;;;;;;;2.75;2.25;;;;;;;8.40;92.24;100363.09;5131778;27;20515;-65
2022/12/31 11:52:05;;;;;;;1.70;1.60;;;;;;;8.44;91.58;100352.19;5131175;27;20050;-65
2022/12/31 11:54:57;;;;;;;2.78;2.53;;;;;;;8.50;91.72;100352.28;5131631;27;20047;-66
2022/12/31 11:57:33;;;;;;;5.97;2.67;;;;;;;8.54;91.72;100346.44;5131259;28;20055;-65
2022/12/31 12:00:15;;;;;;;6.53;4.78;;;;;;;8.62;91.29;100355.91;5131259;27;20066;-65
2022/12/31 12:02:47;;;;;;;2.88;2.55;;;;;;;8.69;90.95;100346.69;5130011;28;20375;-65
2022/12/31 12:05:19;;;;;;;6.88;4.30;;;;;;;8.74;90.91;100350.16;5131141;27;20501;-65
2022/12/31 12:07:48;;;;;;;2.20;2.00;;;;;;;8.76;91.01;100345.97;5131256;27;20065;-66
2022/12/31 12:10:25;;;;;;;1.95;1.83;;;;;;;8.83;89.96;100345.22;5131387;27;20048;-65
2022/12/31 12:13:13;;;;;;;2.55;2.35;;;;;;;8.90;90.49;100351.31;5131417;27;20130;-66
2022/12/31 12:15:48;;;;;;;1.83;1.70;;;;;;;8.99;89.44;100342.13;5131134;27;20074;-65
2022/12/31 12:18:40;;;;;;;1.98;1.83;;;;;;;9.20;89.56;100342.47;5129994;28;20430;-65
2022/12/31 12:21:13;;;;;;;3.78;2.30;;;;;;;9.48;89.13;100342.88;5127850;27;20051;-66
2022/12/31 12:23:54;;;;;;;4.20;3.42;;;;;;;9.73;88.73;100335.56;5130889;27;20047;-65
2022/12/31 12:26:29;;;;;;;4.63;3.50;;;;;;;9.95;87.69;100336.72;5130517;27;20423;-66
2022/12/31 12:28:59;;;;;;;3.92;2.30;;;;;;;10.17;87.56;100333.63;5131102;28;20047;-65
2022/12/31 12:31:32;;;;;;;1.60;1.50;;;;;;;10.37;86.19;100326.16;5129501;28;20439;-65
2022/12/31 12:34:03;;;;;;;1.83;1.73;;;;;;;10.44;85.59;100322.81;5130744;27;20043;-65
2022/12/31 12:36:32;;;;;;;3.63;2.50;;;;;;;10.50;84.52;100313.53;5130834;27;20071;-66
2022/12/31 12:39:02;;;;;;;2.77;2.57;;;;;;;10.56;83.50;100317.84;5116753;28;20066;-65
2022/12/31 12:41:31;;;;;;;16.85;3.80;;;;;;;10.62;82.93;100313.66;5116879;28;20489;-65
2022/12/31 12:44:06;;;;;;;1.92;1.77;;;;;;;10.53;82.32;100316.09;5116751;28;20043;-65
2022/12/31 12:46:43;;;;;;;2.03;1.83;;;;;;;10.58;82.02;100319.56;5117268;28;20036;-65
2022/12/31 12:49:22;;;;;;;2.65;2.45;;;;;;;10.52;81.23;100319.53;5117006;28;20044;-65
2022/12/31 12:52:08;;;;;;;1.80;1.48;;;;;;;10.38;81.07;100332.97;5115401;28;20135;-65
2022/12/31 12:54:51;;;;;;;2.65;1.83;;;;;;;10.29;81.14;100332.88;5116644;28;20075;-63
2022/12/31 12:57:24;;;;;;;4.95;3.15;;;;;;;10.09;80.89;100317.31;5116776;28;20505;-65
2022/12/31 13:00:06;;;;;;;3.17;2.30;;;;;;;9.92;81.43;100321.38;5116881;28;20119;-66
2022/12/31 13:03:05;;;;;;;1.80;1.67;;;;;;;9.72;81.55;100322.78;5116419;28;20112;-65
2022/12/31 13:05:40;;;;;;;;;;;;;;;9.55;81.71;100342.97;5115247;28;20093;-66
2022/12/31 13:08:22;;;;;;;3.33;2.20;;;;;;;9.41;82.14;100342.78;5116354;28;19920;-65
2022/12/31 13:11:04;;;;;;;4.40;3.33;;;;;;;9.34;82.22;100340.09;5116259;28;20044;-65
2022/12/31 13:13:42;;;;;;;1.67;1.58;;;;;;;9.27;82.82;100334.06;5116789;28;20058;-65
2022/12/31 13:16:21;;;;;;;3.83;1.98;;;;;;;9.19;83.33;100325.47;5116328;28;20109;-65
2022/12/31 13:18:59;;;;;;;2.77;2.57;;;;;;;9.10;83.42;100330.41;5116418;28;20059;-65
2022/12/31 13:21:39;;;;;;;1.50;1.40;;;;;;;9.07;83.58;100335.44;5116545;28;20052;-66
2022/12/31 13:24:19;;;;;;;5.13;2.47;;;;;;;9.01;84.12;100330.28;5114924;28;20121;-65
2022/12/31 13:26:50;;;;;;;;;;;;;;;8.98;84.17;100320.03;5116278;28;20158;-66
2022/12/31 13:29:24;;;;;;;2.35;2.10;;;;;;;8.95;84.22;100319.16;5114749;28;19920;-66
2022/12/31 13:31:57;;;;;;;3.53;3.25;;;;;;;8.85;84.20;100313.06;5115888;28;20504;-65
2022/12/31 13:34:32;;;;;;;3.38;3.05;;;;;;;8.92;84.83;100329.28;5116461;28;20054;-66
2022/12/31 13:37:05;;;;;;;2.85;2.20;;;;;;;8.89;85.30;100329.22;5115768;28;20126;-66
2022/12/31 13:39:41;;;;;;;1.45;1.35;;;;;;;8.89;84.69;100324.13;5115629;28;20535;-66
2022/12/31 13:42:20;;;;;;;2.08;1.90;;;;;;;8.86;85.00;100330.03;5116021;28;20051;-66
2022/12/31 13:44:55;;;;;;;2.30;2.10;;;;;;;8.84;85.60;100334.25;5115876;28;20463;-65
2022/12/31 13:47:32;;;;;;;3.38;3.08;;;;;;;8.82;85.66;100335.91;5115556;28;20039;-66
2022/12/31 13:50:11;;;;;;;3.22;2.92;;;;;;;8.82;85.99;100347.75;5114729;28;20051;-65
2022/12/31 13:52:49;;;;;;;2.42;1.83;;;;;;;8.78;85.89;100341.78;5115706;28;20047;-66
2022/12/31 13:55:21;;;;;;;3.53;2.28;;;;;;;8.81;86.06;100346.91;5115562;28;20040;-65
2022/12/31 13:57:54;;;;;;;1.88;1.75;;;;;;;8.84;86.39;100357.16;5115318;28;20058;-66
2022/12/31 14:00:26;;;;;;;2.28;1.80;;;;;;;8.82;85.96;100342.69;5115399;28;20047;-65
2022/12/31 14:03:04;;;;;;;2.53;2.33;;;;;;;8.83;86.24;100350.31;5115251;28;20051;-65
2022/12/31 14:05:40;;;;;;;2.53;2.33;;;;;;;8.77;85.97;100347.69;5115860;28;20067;-66
2022/12/31 14:08:09;;;;;;;3.30;2.83;;;;;;;8.77;86.82;100348.56;5115431;28;20039;-65
2022/12/31 14:10:53;;;;;;;4.38;3.50;;;;;;;8.72;86.93;100351.84;5115158;28;20110;-65
2022/12/31 14:13:40;;;;;;;1.92;1.80;;;;;;;8.71;87.34;100357.75;5115060;28;20493;-65
2022/12/31 14:16:20;;;;;;;9.30;2.78;;;;;;;8.70;87.49;100363.69;5115281;28;20073;-65
2022/12/31 14:18:58;;;;;;;1.95;1.02;;;;;;;8.71;87.04;100367.94;5114942;28;20050;-65
2022/12/31 14:21:35;;;;;;;2.28;1.95;;;;;;;8.71;87.44;100363.69;5115294;28;20101;-65
2022/12/31 14:24:13;;;;;;;2.45;2.25;;;;;;;8.61;87.73;100358.44;5115172;27;20036;-65
2022/12/31 14:26:46;;;;;;;2.25;2.05;;;;;;;8.69;87.09;100364.50;5114547;28;20052;-66
2022/12/31 14:29:28;;;;;;;2.97;2.50;;;;;;;8.67;87.90;100366.16;5114724;28;20068;-66
2022/12/31 14:32:29;;;;;;;2.75;2.35;;;;;;;8.61;87.84;100374.53;5114802;28;20055;-65
2022/12/31 14:35:13;;;;;;;0.80;0.80;;;;;;;8.58;87.40;100374.50;5099001;28;20139;-66
2022/12/31 14:37:51;;;;;;;3.15;2.83;;;;;;;8.57;87.57;100382.09;5114587;28;20047;-65
2022/12/31 14:40:28;;;;;;;2.60;2.08;;;;;;;8.56;88.27;100375.31;5114505;28;20126;-65
2022/12/31 14:43:11;;;;;;;10.95;4.10;;;;;;;8.54;87.67;100377.81;5114560;28;20050;-65
2022/12/31 14:45:52;;;;;;;4.85;2.60;;;;;;;8.53;87.78;100367.59;5114818;28;20043;-65
2022/12/31 14:48:33;;;;;;;4.30;3.90;;;;;;;8.49;88.56;100373.47;5114391;28;20069;-66
2022/12/31 14:51:04;;;;;;;1.27;1.17;;;;;;;8.46;87.89;100375.97;5114372;28;20097;-65
2022/12/31 14:53:34;;;;;;;5.50;2.25;;;;;;;8.43;88.35;100378.44;5114288;28;20054;-65
2022/12/31 14:56:05;;;;;;;1.60;1.50;;;;;;;8.41;88.06;100377.56;5114302;28;20054;-65
2022/12/31 14:58:35;;;;;;;8.80;2.10;;;;;;;8.39;88.78;100376.66;5114224;28;20577;-65
2022/12/31 15:01:07;;;;;;;4.47;4.05;;;;;;;8.34;88.88;100379.13;5114308;28;20503;-65
2022/12/31 15:03:39;;;;;;;3.92;1.83;;;;;;;8.30;88.17;100382.41;5114470;28;20071;-65
2022/12/31 15:06:44;;;;;;;2.40;1.60;;;;;;;8.25;89.72;100375.53;5114556;28;20043;-65
2022/12/31 15:09:20;;;;;;;;;;;;;;;8.23;89.64;100377.19;5114502;28;20056;-66
2022/12/31 15:12:11;;;;;;;11.13;3.38;;;;;;;8.15;89.04;100386.31;5114282;28;20321;-66
2022/12/31 15:14:57;;;;;;;4.03;2.15;;;;;;;8.06;89.22;100387.00;5114325;28;20464;-66
2022/12/31 15:17:38;;;;;;;3.25;2.95;;;;;;;8.01;89.18;100388.59;5114021;28;20409;-65
2022/12/31 15:20:31;;;;;;;6.78;2.67;;;;;;;7.93;89.55;100388.44;5114013;28;20130;-65
2022/12/31 15:22:59;;;;;;;2.25;2.05;;;;;;;7.91;88.65;100385.00;5114327;28;20138;-65
2022/12/31 15:25:33;;;;;;;1.57;1.47;;;;;;;7.80;89.20;100383.91;5113690;28;20082;-65
2022/12/31 15:28:29;;;;;;;2.17;2.00;;;;;;;7.83;89.53;100390.72;5113840;28;20363;-65
2022/12/31 15:31:03;;;;;;;2.78;2.00;;;;;;;7.78;89.32;100390.63;5114221;28;20043;-65
2022/12/31 15:33:38;;;;;;;2.53;2.30;;;;;;;7.74;89.07;100393.94;5113856;28;20043;-65
2022/12/31 15:36:14;;;;;;;2.15;1.95;;;;;;;7.69;89.39;100400.59;5114440;28;20048;-65
2022/12/31 15:38:43;;;;;;;1.63;1.52;;;;;;;7.66;89.81;100395.44;5114121;28;20070;-66
2022/12/31 15:41:28;;;;;;;2.10;2.00;;;;;;;7.63;89.71;100403.00;5114357;28;20097;-65
2022/12/31 15:44:02;;;;;;;1.63;1.52;;;;;;;7.61;89.50;100396.16;5113837;28;20056;-66
2022/12/31 15:46:33;;;;;;;2.33;2.13;;;;;;;7.56;89.82;100408.75;5113756;28;20075;-65
2022/12/31 15:49:06;;;;;;;4.22;3.47;;;;;;;7.51;90.32;100410.34;5113784;28;20081;-66
2022/12/31 15:51:50;;;;;;;4.22;2.55;;;;;;;7.31;90.03;100368.41;5113725;28;20039;-65
2022/12/31 15:54:28;;;;;;;2.30;2.10;;;;;;;7.52;90.13;100406.97;5113664;28;20223;-66
2022/12/31 15:56:59;;;;;;;2.35;2.15;;;;;;;7.52;90.00;100395.97;5113630;28;20507;-66
2022/12/31 15:59:37;;;;;;;;;;;;;;;7.54;90.30;100394.31;5114362;28;20040;-66
2022/12/31 16:02:21;;;;;;;4.68;3.22;;;;;;;7.54;90.43;100400.25;5113668;28;19920;-65
2022/12/31 16:04:51;;;;;;;8.35;3.50;;;;;;;7.53;90.59;100398.56;5113912;28;20047;-65
2022/12/31 16:07:20;;;;;;;2.58;2.38;;;;;;;7.51;90.30;100415.41;5113567;28;20163;-65
2022/12/31 16:09:53;;;;;;;8.40;4.97;;;;;;;7.48;90.33;100395.03;5113593;28;20036;-65
2022/12/31 16:12:26;;;;;;;9.55;3.00;;;;;;;7.51;90.81;100410.34;5114286;28;20043;-65
2022/12/31 16:15:02;;;;;;;6.10;4.93;;;;;;;7.49;90.31;100409.44;5118025;28;20047;-65
2022/12/31 16:17:33;;;;;;;10.00;3.95;;;;;;;7.49;91.24;100403.50;5117354;28;20047;-66
2022/12/31 16:20:20;;;;;;;8.57;5.47;;;;;;;7.48;90.75;100400.13;5117332;28;20052;-65
2022/12/31 16:22:54;;;;;;;5.90;4.28;;;;;;;7.48;90.48;100396.72;5117249;28;20048;-65
2022/12/31 16:25:24;;;;;;;11.90;7.35;;;;;;;7.45;90.61;100402.59;5117238;27;20055;-66
2022/12/31 16:28:04;;;;;;;10.25;8.43;;;;;;;7.40;91.03;100391.47;5117428;28;20062;-66
2022/12/31 16:30:35;;;;;;;9.02;7.10;;;;;;;7.39;91.06;100397.34;5117082;28;20051;-66
2022/12/31 16:33:11;;;;;;;14.70;7.97;;;;;;;7.35;90.86;100413.34;5117100;28;20047;-65
2022/12/31 16:35:40;;;;;;;9.15;5.72;;;;;;;7.28;90.93;100401.31;5116967;28;20066;-65
2022/12/31 16:38:14;;;;;;;42.38;6.88;;;;;;;7.25;91.40;100413.94;5117148;28;20442;-65
2022/12/31 16:41:05;;;;;;;2.55;2.28;;;;;;;7.22;90.65;100413.88;5116968;28;20054;-66
2022/12/31 16:43:40;;;;;;;9.20;5.82;;;;;;;7.23;91.31;100419.00;5115931;28;20512;-66
2022/12/31 16:46:12;;;;;;;11.60;6.05;;;;;;;7.22;91.95;100429.13;5115894;28;20052;-65
2022/12/31 16:48:46;;;;;;;5.20;4.72;;;;;;;7.17;91.55;100429.00;5116976;28;20044;-65
2022/12/31 16:51:20;;;;;;;4.50;4.10;;;;;;;7.17;91.31;100440.84;5115817;28;20051;-65
2022/12/31 16:53:50;;;;;;;5.63;3.70;;;;;;;7.14;91.16;100444.16;5117109;28;20047;-65
2022/12/31 16:56:23;;;;;;;;;;;;;;;7.13;91.96;100441.56;5117337;28;20055;-65
2022/12/31 16:59:01;;;;;;;4.07;3.30;;;;;;;7.12;90.92;100439.84;5115430;28;19999;-65
2022/12/31 17:01:34;;;;;;;4.85;4.30;;;;;;;7.03;91.56;100429.47;5116825;28;20067;-65
2022/12/31 17:04:08;;;;;;;2.75;2.55;;;;;;;7.06;91.38;100440.56;5116495;28;20371;-66
2022/12/31 17:06:37;;;;;;;4.22;3.35;;;;;;;7.03;91.89;100444.72;5116759;28;20497;-65
2022/12/31 17:09:13;;;;;;;6.50;3.13;;;;;;;7.03;92.22;100449.78;5116227;28;20036;-65
2022/12/31 17:11:47;;;;;;;4.68;3.35;;;;;;;7.04;91.62;100446.41;5116598;28;20058;-65
2022/12/31 17:14:19;;;;;;;4.28;3.00;;;;;;;7.04;91.62;100446.41;5116530;28;20412;-65
2022/12/31 17:16:57;;;;;;;2.20;1.98;;;;;;;7.04;91.77;100441.34;5116285;28;20530;-65
2022/12/31 17:19:43;;;;;;;3.67;3.33;;;;;;;7.07;91.90;100436.34;5116245;28;20126;-65
2022/12/31 17:22:18;;;;;;;2.60;1.88;;;;;;;7.06;92.37;100440.56;5116126;28;20047;-65
2022/12/31 17:25:01;;;;;;;4.40;3.80;;;;;;;7.07;91.85;100441.41;5116184;28;20086;-66
2022/12/31 17:27:30;;;;;;;4.20;3.80;;;;;;;7.05;92.58;100448.13;5116390;28;20055;-65
2022/12/31 17:30:32;;;;;;;5.85;5.28;;;;;;;7.00;92.09;100445.50;5115842;28;20122;-65
2022/12/31 17:33:03;;;;;;;4.60;3.15;;;;;;;6.96;92.12;100447.91;5115948;28;20051;-65
2022/12/31 17:35:35;;;;;;;3.95;2.78;;;;;;;6.95;92.58;100452.13;5116165;28;20043;-66
2022/12/31 17:38:26;;;;;;;4.53;4.00;;;;;;;6.92;92.48;100461.31;5115848;28;20074;-65
2022/12/31 17:41:04;;;;;;;3.72;3.22;;;;;;;6.89;92.29;100456.16;5116036;28;20043;-65
2022/12/31 17:43:35;;;;;;;3.30;3.00;;;;;;;6.89;92.65;100456.16;5116052;28;20082;-65
2022/12/31 17:46:11;;;;;;;5.10;4.57;;;;;;;6.89;91.78;100456.16;5115687;28;20051;-66
2022/12/31 17:48:41;;;;;;;5.90;4.53;;;;;;;6.86;92.02;100456.97;5115573;28;20494;-65
2022/12/31 17:51:09;;;;;;;3.67;3.38;;;;;;;6.85;91.91;100456.91;5115871;28;20117;-65
2022/12/31 17:53:38;;;;;;;4.90;4.47;;;;;;;6.85;91.58;100456.91;5115569;28;20039;-65
2022/12/31 17:56:15;;;;;;;2.65;2.38;;;;;;;6.81;92.33;100453.44;5115446;27;20074;-65
2022/12/31 17:58:47;;;;;;;3.58;3.28;;;;;;;6.81;92.10;100450.03;5115480;27;20040;-65
2022/12/31 18:01:20;;;;;;;3.42;2.58;;;;;;;6.82;92.37;100444.13;5115672;27;20047;-66
2022/12/31 18:03:50;;;;;;;10.65;6.82;;;;;;;6.80;92.47;100441.56;5115371;28;20055;-65
2022/12/31 18:06:19;;;;;;;6.63;3.92;;;;;;;6.77;92.23;100449.09;5115715;28;20482;-66
2022/12/31 18:08:48;;;;;;;8.55;5.80;;;;;;;6.76;92.65;100455.00;5115049;28;20498;-65
2022/12/31 18:11:18;;;;;;;6.18;4.03;;;;;;;6.72;92.19;100451.50;5115495;28;20039;-65
2022/12/31 18:13:48;;;;;;;7.18;3.72;;;;;;;6.65;92.65;100452.16;5115399;28;20092;-66
2022/12/31 18:16:18;;;;;;;6.68;6.07;;;;;;;6.60;92.02;100447.75;5115092;28;20044;-65
2022/12/31 18:18:47;;;;;;;4.97;4.53;;;;;;;6.56;92.22;100462.06;5114953;28;20058;-66
2022/12/31 18:21:19;;;;;;;10.25;5.32;;;;;;;6.27;92.21;100412.19;5115256;28;20075;-65
2022/12/31 18:23:49;;;;;;;4.75;4.13;;;;;;;6.46;92.66;100444.84;5114868;28;20040;-65
2022/12/31 18:26:20;;;;;;;10.93;5.43;;;;;;;6.42;92.69;100448.13;5114788;28;20096;-65
2022/12/31 18:28:50;;;;;;;8.77;5.32;;;;;;;6.39;91.95;100439.56;5115022;27;20436;-65
2022/12/31 18:31:22;;;;;;;5.05;4.53;;;;;;;6.37;92.44;100443.75;5115445;28;20070;-66
2022/12/31 18:33:52;;;;;;;3.60;3.22;;;;;;;6.34;92.03;100434.38;5114751;28;20043;-65
2022/12/31 18:36:22;;;;;;;5.07;4.57;;;;;;;6.32;92.17;100446.16;5114606;28;20116;-65
2022/12/31 18:38:51;;;;;;;6.55;4.88;;;;;;;6.29;92.14;100446.06;5114979;28;20089;-65
2022/12/31 18:41:23;;;;;;;17.87;6.07;;;;;;;6.28;92.28;100443.50;5114802;28;20035;-65
2022/12/31 18:43:52;;;;;;;6.47;5.10;;;;;;;6.25;92.23;100438.31;5114525;28;20064;-65
2022/12/31 18:46:25;;;;;;;3.58;3.28;;;;;;;6.19;92.20;100433.09;5114360;28;20077;-64
2022/12/31 18:48:55;;;;;;;10.15;6.78;;;;;;;6.19;92.74;100439.00;5113176;28;20047;-65
2022/12/31 18:51:24;;;;;;;6.05;3.78;;;;;;;6.15;92.52;100436.34;5114755;28;20039;-65
2022/12/31 18:53:59;;;;;;;4.78;3.20;;;;;;;6.12;92.44;100437.09;5114646;28;20554;-66
2022/12/31 18:56:28;;;;;;;4.13;3.45;;;;;;;6.10;92.26;100438.75;5114343;28;20097;-66
2022/12/31 18:58:58;;;;;;;7.38;4.00;;;;;;;6.06;92.60;100429.34;5114506;28;20035;-65
2022/12/31 19:01:31;;;;;;;5.45;4.78;;;;;;;6.01;92.21;100438.47;5114207;28;20047;-66
2022/12/31 19:04:02;;;;;;;8.85;5.82;;;;;;;5.97;92.95;100432.44;5114515;28;20507;-66
2022/12/31 19:06:31;;;;;;;10.77;5.97;;;;;;;5.92;92.35;100433.16;5114221;28;20548;-66
2022/12/31 19:09:00;;;;;;;10.07;5.83;;;;;;;5.90;93.06;100437.31;5114415;28;20031;-66
2022/12/31 19:11:31;;;;;;;7.80;4.97;;;;;;;5.89;92.90;100433.91;5112946;28;20085;-66
2022/12/31 19:14:00;;;;;;;4.57;4.03;;;;;;;5.89;93.13;100443.19;5114056;28;20050;-66
2022/12/31 19:16:31;;;;;;;8.00;4.55;;;;;;;5.87;93.06;100439.75;5114097;28;20043;-66
2022/12/31 19:19:00;;;;;;;6.53;5.35;;;;;;;5.85;93.20;100451.50;5114025;28;20058;-66
2022/12/31 19:21:36;;;;;;;7.43;3.63;;;;;;;5.81;93.25;100434.44;5114390;28;20032;-66
2022/12/31 19:24:12;;;;;;;4.23;3.23;;;;;;;5.79;93.10;100441.13;5113974;28;20466;-66
2022/12/31 19:26:42;;;;;;;8.65;6.38;;;;;;;5.71;92.94;100440.06;5113909;28;20095;-66
2022/12/31 19:29:16;;;;;;;7.15;5.25;;;;;;;5.68;93.17;100442.50;5113896;28;20052;-66
2022/12/31 19:31:47;;;;;;;23.67;7.20;;;;;;;5.63;93.28;100444.03;5114252;28;20469;-66
2022/12/31 19:34:17;;;;;;;7.75;5.30;;;;;;;5.59;92.80;100442.22;5114213;28;20089;-66
2022/12/31 19:36:46;;;;;;;8.20;7.40;;;;;;;5.53;92.98;100440.34;5114180;28;20113;-66
2022/12/31 19:39:18;;;;;;;11.40;9.75;;;;;;;5.50;92.95;100442.78;5113915;28;20048;-66
2022/12/31 19:41:47;;;;;;;16.45;13.13;;;;;;;5.50;93.01;100452.03;5113889;28;20063;-66
2022/12/31 19:44:26;;;;;;;11.40;10.23;;;;;;;5.43;92.81;100436.66;5113793;28;20052;-66
2022/12/31 19:46:56;;;;;;;11.82;8.90;;;;;;;5.39;92.93;100439.91;5114133;28;20036;-66
2022/12/31 19:49:25;;;;;;;18.23;10.18;;;;;;;5.37;93.23;100441.50;5117949;28;20078;-66
2022/12/31 19:51:54;;;;;;;9.67;8.73;;;;;;;5.37;93.37;100436.44;5116767;28;20047;-66
2022/12/31 19:54:23;;;;;;;12.25;8.13;;;;;;;5.37;92.85;100438.16;5117781;28;20047;-66
2022/12/31 19:56:51;;;;;;;6.65;4.78;;;;;;;5.35;93.18;100457.50;5118197;28;20175;-66
2022/12/31 19:59:20;;;;;;;11.45;8.05;;;;;;;5.34;93.18;100441.44;5118049;28;20035;-66
2022/12/31 20:01:49;;;;;;;9.00;7.90;;;;;;;5.28;93.03;100453.88;5118576;28;20127;-66
2022/12/31 20:04:20;;;;;;;9.47;4.60;;;;;;;5.29;92.88;100453.09;5117579;28;20042;-66
2022/12/31 20:06:49;;;;;;;4.38;3.97;;;;;;;5.27;93.37;100457.25;5118256;28;20047;-66
2022/12/31 20:09:18;;;;;;;34.77;7.83;;;;;;;5.24;93.05;100454.59;5117553;28;20051;-66
2022/12/31 20:11:46;;;;;;;3.47;2.20;;;;;;;5.19;93.14;100451.06;5117775;28;20470;-66
2022/12/31 20:14:15;;;;;;;5.65;3.97;;;;;;;5.18;93.25;100456.91;5117435;28;20051;-66
2022/12/31 20:16:44;;;;;;;6.57;5.07;;;;;;;5.15;93.44;100451.78;5117420;28;20127;-66
2022/12/31 20:19:13;;;;;;;2.37;1.77;;;;;;;5.14;93.14;100452.56;5117351;28;20047;-66
2022/12/31 20:21:43;;;;;;;9.07;5.57;;;;;;;5.12;93.26;100454.19;5117272;28;20131;-66
2022/12/31 20:24:12;;;;;;;12.30;5.18;;;;;;;5.10;93.10;100455.81;5117306;28;20626;-66
2022/12/31 20:26:41;;;;;;;9.55;6.40;;;;;;;5.10;93.12;100460.88;5117071;28;20447;-65
2022/12/31 20:29:10;;;;;;;4.93;4.53;;;;;;;5.12;93.40;100459.25;5117172;28;20039;-66
2022/12/31 20:31:39;;;;;;;9.38;5.90;;;;;;;5.12;93.34;100456.72;5117041;28;20131;-66
2022/12/31 20:34:10;;;;;;;4.03;3.70;;;;;;;5.11;93.26;100457.53;5117358;28;20031;-66
2022/12/31 20:36:39;;;;;;;7.10;6.40;;;;;;;5.12;93.39;100454.19;5117317;28;20509;-66
2022/12/31 20:39:09;;;;;;;7.03;3.05;;;;;;;5.11;93.34;100442.34;5116985;28;20040;-66
2022/12/31 20:41:38;;;;;;;4.35;3.67;;;;;;;5.12;93.22;100448.25;5116971;28;20043;-66
2022/12/31 20:44:07;;;;;;;3.03;2.30;;;;;;;5.09;93.45;100454.09;5116889;28;20119;-66
2022/12/31 20:46:36;;;;;;;8.00;5.32;;;;;;;5.07;93.37;100445.59;5116740;28;20044;-66
2022/12/31 20:49:05;;;;;;;2.13;2.00;;;;;;;5.06;93.97;100446.38;5116780;28;20501;-66
2022/12/31 20:51:35;;;;;;;4.68;3.90;;;;;;;5.04;93.61;100442.94;5116671;28;20047;-66
2022/12/31 20:54:06;;;;;;;5.53;5.07;;;;;;;5.01;93.47;100445.41;5117602;28;20051;-66
2022/12/31 20:56:39;;;;;;;6.90;4.97;;;;;;;4.98;93.47;100450.34;5116552;28;20050;-66
2022/12/31 20:59:09;;;;;;;6.72;3.88;;;;;;;4.92;93.58;100450.13;5116140;28;20058;-66
2022/12/31 21:01:39;;;;;;;8.32;3.47;;;;;;;4.88;93.52;100463.47;5116878;28;20067;-66
2022/12/31 21:04:28;;;;;;;5.85;3.97;;;;;;;4.84;93.27;100486.94;5116568;28;20040;-66
2022/12/31 21:06:57;;;;;;;3.40;2.92;;;;;;;4.81;93.55;100481.78;5116733;27;20032;-66
2022/12/31 21:09:25;;;;;;;3.43;3.17;;;;;;;4.77;93.28;100474.91;5116412;28;20497;-66
2022/12/31 21:14:35;;;;;;;6.63;5.07;;;;;;;4.75;93.55;100462.19;5116324;28;20077;-66
2022/12/31 21:17:12;;;;;;;5.05;3.42;;;;;;;4.74;93.08;100459.63;5116527;28;20497;-67
2022/12/31 21:19:40;;;;;;;4.53;4.13;;;;;;;4.68;93.56;100464.44;5116813;28;20036;-66
2022/12/31 21:22:09;;;;;;;6.10;3.63;;;;;;;4.67;93.31;100462.75;5116156;28;20516;-66
2022/12/31 21:24:39;;;;;;;4.38;3.30;;;;;;;4.66;93.72;100466.94;5116156;28;20097;-66
2022/12/31 21:27:09;;;;;;;5.50;4.45;;;;;;;4.66;93.43;100466.06;5115841;27;20489;-66
2022/12/31 21:29:38;;;;;;;7.88;6.50;;;;;;;4.64;93.46;100468.53;5116379;28;20047;-66
2022/12/31 21:32:27;;;;;;;5.00;3.28;;;;;;;4.66;93.59;100469.47;5116238;28;20427;-66
2022/12/31 21:34:55;;;;;;;2.47;2.28;;;;;;;4.66;93.35;100471.13;5115972;28;20444;-66
2022/12/31 21:37:44;;;;;;;3.80;3.47;;;;;;;4.66;93.54;100471.13;5116160;28;20051;-66
2022/12/31 21:40:29;;;;;;;3.90;3.03;;;;;;;4.66;93.56;100456.81;5115852;28;20054;-66
2022/12/31 21:42:59;;;;;;;5.32;4.80;;;;;;;4.60;93.34;100460.81;5115743;28;20221;-66
2022/12/31 21:45:28;;;;;;;3.33;3.03;;;;;;;4.62;93.35;100469.31;5116341;28;20071;-66
2022/12/31 21:50:37;;;;;;;5.20;3.33;;;;;;;4.62;93.33;100475.22;5115857;28;20353;-66
2022/12/31 21:53:06;;;;;;;4.17;3.87;;;;;;;4.62;93.68;100469.31;5115539;28;20039;-66
2022/12/31 21:58:18;;;;;;;1.92;1.83;;;;;;;4.60;93.41;100479.38;5115449;28;20054;-67
2022/12/31 22:03:35;;;;;;;;;;;;;;;4.61;93.66;100473.50;5115785;28;20063;-66
2022/12/31 22:06:09;;;;;;;3.58;3.20;;;;;;;4.62;93.62;100484.47;5115261;28;19920;-66
2022/12/31 22:08:39;;;;;;;2.70;2.45;;;;;;;4.61;93.83;100485.25;5115303;28;20050;-67
2022/12/31 22:11:07;;;;;;;;;;;;;;;4.61;93.58;100475.16;5114676;27;20497;-66
2022/12/31 22:13:38;;;;;;;1.40;0.93;;;;;;;4.51;93.69;100461.31;5115069;28;19920;-66
2022/12/31 22:16:07;;;;;;;3.42;2.63;;;;;;;4.57;93.50;100475.84;5115461;28;20039;-66
2022/12/31 22:18:39;;;;;;;5.28;3.55;;;;;;;4.56;93.52;100485.09;5114934;28;20044;-67
2022/12/31 22:21:11;;;;;;;4.13;3.72;;;;;;;4.54;93.58;100476.59;5115007;28;20493;-66
2022/12/31 22:23:48;;;;;;;2.40;1.90;;;;;;;4.53;93.53;100479.09;5114942;28;20142;-67
2022/12/31 22:26:19;;;;;;;1.55;1.45;;;;;;;4.46;93.94;100477.97;5114727;28;20047;-66
2022/12/31 22:28:51;;;;;;;3.30;3.00;;;;;;;4.43;93.34;100477.03;5114788;28;20051;-66
2022/12/31 22:31:24;;;;;;;2.53;2.25;;;;;;;4.38;93.75;100468.41;5114881;28;20494;-66
2022/12/31 22:33:53;;;;;;;6.22;3.38;;;;;;;4.37;93.75;100472.59;5115164;28;20040;-66
2022/12/31 22:36:24;;;;;;;4.35;3.95;;;;;;;4.38;93.63;100474.34;5114761;28;20481;-66
2022/12/31 22:38:56;;;;;;;2.00;1.85;;;;;;;4.37;93.70;100474.25;5114988;28;20505;-66
2022/12/31 22:41:27;;;;;;;4.75;2.85;;;;;;;4.39;93.76;100476.03;5114671;28;20127;-66
2022/12/31 22:43:59;;;;;;;5.38;3.92;;;;;;;4.39;93.66;100465.94;5114671;28;20397;-66
2022/12/31 22:46:33;;;;;;;11.15;4.20;;;;;;;4.37;93.82;100451.53;5114777;28;20047;-67
2022/12/31 22:49:04;;;;;;;3.58;3.28;;;;;;;4.31;93.49;100461.41;5114451;28;20066;-66
2022/12/31 22:51:33;;;;;;;1.90;1.77;;;;;;;4.27;93.66;100460.44;5113534;28;20122;-66
2022/12/31 22:54:22;;;;;;;6.32;4.15;;;;;;;4.27;93.98;100467.19;5114459;28;20063;-66
2022/12/31 22:56:51;;;;;;;1.53;1.47;;;;;;;4.27;93.71;100454.53;5114653;28;20051;-66
2022/12/31 22:59:22;;;;;;;1.67;1.57;;;;;;;4.25;93.30;100446.88;5114606;28;20536;-66
2022/12/31 23:01:52;;;;;;;2.85;2.63;;;;;;;4.25;93.83;100451.09;5114685;28;20100;-66
2022/12/31 23:04:21;;;;;;;2.50;2.30;;;;;;;4.20;93.96;100457.66;5114254;28;20046;-66
2022/12/31 23:06:49;;;;;;;2.97;2.70;;;;;;;4.18;93.74;100464.28;5114558;28;20043;-66
2022/12/31 23:11:57;;;;;;;6.57;4.57;;;;;;;4.19;94.02;100466.03;5114172;28;20367;-66
2022/12/31 23:25:16;;;;;;;6.28;5.72;;;;;;;4.14;93.91;100462.47;5113761;28;20086;-66
2022/12/31 23:27:45;;;;;;;5.17;4.67;;;;;;;4.15;93.95;100459.16;5114418;28;20125;-66
2022/12/31 23:30:15;;;;;;;6.73;4.43;;;;;;;4.16;93.68;100460.84;5114215;28;20280;-66
2022/12/31 23:32:44;;;;;;;4.57;4.22;;;;;;;4.17;93.49;100467.63;5113896;28;20809;-66
2022/12/31 23:35:13;;;;;;;5.13;3.97;;;;;;;4.16;93.80;100465.91;5113928;28;20052;-66
2022/12/31 23:37:42;;;;;;;3.60;3.28;;;;;;;4.16;93.34;100476.88;5113902;28;20100;-66
2022/12/31 23:40:12;;;;;;;4.40;1.95;;;;;;;4.16;93.44;100471.81;5113834;28;20050;-66
2022/12/31 23:42:48;;;;;;;3.58;2.58;;;;;;;4.14;93.83;100468.38;5114198;28;20100;-66
2022/12/31 23:45:19;;;;;;;1.67;1.58;;;;;;;4.12;93.78;100469.13;5113778;28;20036;-66
2022/12/31 23:47:47;;;;;;;4.07;3.75;;;;;;;4.12;93.77;100479.22;5114076;28;20050;-66
2022/12/31 23:50:16;;;;;;;5.70;5.13;;;;;;;4.12;93.31;100469.13;5113829;28;20040;-66
2022/12/31 23:52:45;;;;;;;3.60;3.03;;;;;;;4.12;93.38;100470.00;5113672;28;20092;-66
2022/12/31 23:55:14;;;;;;;4.68;2.88;;;;;;;4.08;93.34;100480.75;5114568;28;20272;-66
2022/12/31 23:57:43;;;;;;;5.67;4.57;;;;;;;4.05;93.49;100473.09;5113752;28;20086;-66
